Time;durP1;ratioP1;P1;durP2;ratioP2;P2;SDS_P1;SDS_P2;PMS_P1;PMS_P2;Temp;Humidity;BMP_temperature;BMP_pressure;BME280_temperature;BME280_humidity;BME280_pressure;Samples;Min_cycle;Max_cycle;Signal;HPM_P1;HPM_P2
2022/11/19 00:01:19;;;;;;;;;;;7.40;99.90;;;;;;5094678;28;19974;-61
2022/11/19 00:03:48;;;;;;;;;;;7.30;99.90;;;;;;5095361;28;19974;-61
2022/11/19 00:06:21;;;;;;;;;;;7.20;99.90;;;;;;5094261;28;19963;-61
2022/11/19 00:08:49;;;;;;;;;;;7.10;99.90;;;;;;5088732;28;19967;-62
2022/11/19 00:12:53;;;;;;;;;;;6.90;99.90;;;;;;5094400;28;20343;-61
2022/11/19 00:14:06;;;;;;;;;;;6.80;99.90;;;;;;5095159;28;19971;-61
2022/11/19 00:16:34;;;;;;;;;;;6.70;99.90;;;;;;5095384;28;19977;-63
2022/11/19 00:19:02;;;;;;;;;;;6.70;99.90;;;;;;5095012;28;20359;-61
2022/11/19 00:21:30;;;;;;;;;;;6.70;99.90;;;;;;5074071;28;20058;-61
2022/11/19 00:23:58;;;;;;;;;;;6.60;99.90;;;;;;5074823;28;19973;-61
2022/11/19 00:26:25;;;;;;;;;;;6.60;99.90;;;;;;5074880;28;19967;-61
2022/11/19 00:28:54;;;;;;;;;;;6.50;99.90;;;;;;5074768;28;19974;-61
2022/11/19 00:31:23;;;;;;;;;;;6.50;99.90;;;;;;5073578;28;19978;-63
2022/11/19 00:33:53;;;;;;;;;;;6.30;99.90;;;;;;5074832;28;19972;-61
2022/11/19 00:36:21;;;;;;;;;;;6.20;99.90;;;;;;5088085;28;20449;-61
2022/11/19 00:38:48;;;;;;;;;;;6.20;99.90;;;;;;5088193;28;19978;-61
2022/11/19 00:41:16;;;;;;;;;;;6.10;99.90;;;;;;5093969;28;19967;-62
2022/11/19 00:43:47;;;;;;;;;;;6.10;99.90;;;;;;5094770;28;19971;-60
2022/11/19 00:46:16;;;;;;;;;;;6.00;99.90;;;;;;5094552;28;19967;-60
2022/11/19 00:48:45;;;;;;;;;;;6.10;99.90;;;;;;5094762;28;19994;-60
2022/11/19 00:51:13;;;;;;;;;;;6.10;99.90;;;;;;5093729;28;19967;-60
2022/11/19 00:53:41;;;;;;;;;;;6.00;99.90;;;;;;5094211;28;19972;-61
2022/11/19 00:56:10;;;;;;;;;;;5.90;99.90;;;;;;5094172;28;20440;-60
2022/11/19 00:58:38;;;;;;;;;;;5.90;99.90;;;;;;5094698;28;19980;-61
2022/11/19 01:01:06;;;;;;;;;;;5.80;99.90;;;;;;5093016;28;19967;-61
2022/11/19 01:03:34;;;;;;;;;;;5.90;99.90;;;;;;5094294;28;20340;-61
2022/11/19 01:06:03;;;;;;;;;;;5.90;99.90;;;;;;5093733;28;19967;-61
2022/11/19 01:08:31;;;;;;;;;;;5.80;99.90;;;;;;5085792;28;19992;-61
2022/11/19 01:11:03;;;;;;;;;;;5.90;99.90;;;;;;5093076;28;19978;-61
2022/11/19 01:13:37;;;;;;;;;;;5.90;99.90;;;;;;5094325;28;19968;-61
2022/11/19 01:16:06;;;;;;;;;;;5.90;99.90;;;;;;5093850;28;20376;-61
2022/11/19 01:18:34;;;;;;;;;;;5.70;99.90;;;;;;5094053;28;19974;-61
2022/11/19 01:21:03;;;;;;;;;;;5.60;99.90;;;;;;5093220;28;19968;-61
2022/11/19 01:23:32;;;;;;;;;;;5.60;99.90;;;;;;5092222;28;19975;-61
2022/11/19 01:26:07;;;;;;;;;;;5.60;99.90;;;;;;5093656;28;19968;-61
2022/11/19 01:28:35;;;;;;;;;;;5.80;99.90;;;;;;5093612;28;20447;-61
2022/11/19 01:31:06;;;;;;;;;;;5.80;99.90;;;;;;5092554;28;19978;-61
2022/11/19 01:33:33;;;;;;;;;;;5.90;99.90;;;;;;5093504;28;20070;-61
2022/11/19 01:36:04;;;;;;;;;;;5.80;99.90;;;;;;5093035;28;19970;-60
2022/11/19 01:38:32;;;;;;;;;;;5.60;99.90;;;;;;5085262;28;19967;-60
2022/11/19 01:41:00;;;;;;;;;;;5.60;99.90;;;;;;5093003;28;19981;-60
2022/11/19 01:43:41;;;;;;;;;;;5.40;99.90;;;;;;5093388;28;19975;-62
2022/11/19 01:46:09;;;;;;;;;;;5.40;99.90;;;;;;5093018;28;19967;-62
2022/11/19 01:48:39;;;;;;;;;;;5.40;99.90;;;;;;5093320;28;19968;-63
2022/11/19 01:51:10;;;;;;;;;;;5.30;99.90;;;;;;5092601;28;19979;-62
2022/11/19 01:53:38;;;;;;;;;;;5.30;99.90;;;;;;5093411;28;19981;-63
2022/11/19 01:56:07;;;;;;;;;;;5.30;99.90;;;;;;5092910;28;19968;-62
2022/11/19 01:58:37;;;;;;;;;;;5.30;99.90;;;;;;5093296;28;20073;-62
2022/11/19 02:01:05;;;;;;;;;;;5.30;99.90;;;;;;5092725;28;19982;-62
2022/11/19 02:03:33;;;;;;;;;;;5.40;99.90;;;;;;5093467;28;20030;-63
2022/11/19 02:06:02;;;;;;;;;;;5.40;99.90;;;;;;5092669;28;19963;-61
2022/11/19 02:08:36;;;;;;;;;;;5.40;99.90;;;;;;5084612;28;19974;-60
2022/11/19 02:11:12;;;;;;;;;;;5.30;99.90;;;;;;5092550;28;19967;-61
2022/11/19 02:13:41;;;;;;;;;;;5.30;99.90;;;;;;5093163;28;19977;-61
2022/11/19 02:16:14;;;;;;;;;;;5.40;99.90;;;;;;5092821;28;20352;-61
2022/11/19 02:18:46;;;;;;;;;;;5.30;99.90;;;;;;5092845;28;19978;-60
2022/11/19 02:21:20;;;;;;;;;;;5.20;99.90;;;;;;5092095;28;19971;-62
2022/11/19 02:24:08;;;;;;;;;;;5.20;99.90;;;;;;5092884;28;19975;-62
2022/11/19 02:26:50;;;;;;;;;;;5.20;99.90;;;;;;5092612;28;19968;-62
2022/11/19 02:29:23;;;;;;;;;;;5.20;99.90;;;;;;5092881;28;20382;-62
2022/11/19 02:31:55;;;;;;;;;;;5.20;99.90;;;;;;5092045;28;19968;-62
2022/11/19 02:34:25;;;;;;;;;;;5.10;99.90;;;;;;5092743;28;19974;-60
2022/11/19 02:36:56;;;;;;;;;;;5.20;99.90;;;;;;5081799;28;19964;-59
2022/11/19 02:39:25;;;;;;;;;;;5.30;99.90;;;;;;5090663;28;19975;-60
2022/11/19 02:41:55;;;;;;;;;;;5.30;99.90;;;;;;5091807;28;19972;-60
2022/11/19 02:47:12;;;;;;;;;;;5.20;99.90;;;;;;5092327;28;19974;-60
2022/11/19 02:49:41;;;;;;;;;;;5.10;99.90;;;;;;5091717;28;20484;-60
2022/11/19 02:52:09;;;;;;;;;;;5.00;99.90;;;;;;5091803;28;19966;-60
2022/11/19 02:54:37;;;;;;;;;;;5.00;99.90;;;;;;5092200;28;19967;-60
2022/11/19 02:57:05;;;;;;;;;;;4.90;99.90;;;;;;5091892;28;19974;-60
2022/11/19 03:05:14;;;;;;;;;;;4.90;99.90;;;;;;5091853;28;19968;-60
2022/11/19 03:07:41;;;;;;;;;;;4.80;99.90;;;;;;5079995;28;19964;-60
2022/11/19 03:10:10;;;;;;;;;;;4.90;99.90;;;;;;5081476;28;19971;-61
2022/11/19 03:12:44;;;;;;;;;;;4.90;99.90;;;;;;5092248;28;19971;-61
2022/11/19 03:18:09;;;;;;;;;;;4.80;99.90;;;;;;5091992;28;19971;-61
2022/11/19 03:20:39;;;;;;;;;;;4.80;99.90;;;;;;5091090;28;19972;-61
2022/11/19 03:23:10;;;;;;;;;;;4.60;99.90;;;;;;5091832;28;19967;-60
2022/11/19 03:25:40;;;;;;;;;;;4.60;99.90;;;;;;5091381;28;19968;-61
2022/11/19 03:28:12;;;;;;;;;;;4.60;99.90;;;;;;5091736;28;19977;-61
2022/11/19 03:30:40;;;;;;;;;;;4.70;99.90;;;;;;5091186;28;20375;-61
2022/11/19 03:33:12;;;;;;;;;;;4.80;99.90;;;;;;5091816;28;19972;-61
2022/11/19 03:35:42;;;;;;;;;;;4.70;99.90;;;;;;5091298;28;19971;-60
2022/11/19 03:38:12;;;;;;;;;;;4.60;99.90;;;;;;5083108;28;19970;-61
2022/11/19 03:40:40;;;;;;;;;;;4.50;99.90;;;;;;5091059;28;20034;-61
2022/11/19 03:43:10;;;;;;;;;;;4.60;99.90;;;;;;5091229;28;19968;-63
2022/11/19 03:45:39;;;;;;;;;;;4.50;99.90;;;;;;5091546;28;19971;-63
2022/11/19 03:48:07;;;;;;;;;;;4.50;99.90;;;;;;5091653;28;19967;-62
2022/11/19 03:50:39;;;;;;;;;;;4.60;99.90;;;;;;5091123;28;19976;-63
2022/11/19 03:53:07;;;;;;;;;;;4.50;99.90;;;;;;5091638;28;19970;-63
2022/11/19 03:55:37;;;;;;;;;;;4.40;99.90;;;;;;5091318;28;20332;-62
2022/11/19 03:58:06;;;;;;;;;;;4.40;99.90;;;;;;5091540;28;19992;-63
2022/11/19 04:00:34;;;;;;;;;;;4.30;99.90;;;;;;5090094;28;20053;-63
2022/11/19 04:03:01;;;;;;;;;;;4.40;99.90;;;;;;5091552;28;19992;-63
2022/11/19 04:05:29;;;;;;;;;;;4.30;99.90;;;;;;5090643;28;19994;-62
2022/11/19 04:07:58;;;;;;;;;;;4.30;99.90;;;;;;5089768;28;20006;-63
2022/11/19 04:10:26;;;;;;;;;;;4.30;99.90;;;;;;5082233;28;19966;-63
2022/11/19 04:12:54;;;;;;;;;;;4.20;99.90;;;;;;5091420;28;19967;-63
2022/11/19 04:15:21;;;;;;;;;;;4.20;99.90;;;;;;5091523;28;20435;-61
2022/11/19 04:17:49;;;;;;;;;;;4.20;99.90;;;;;;5090991;28;20347;-61
2022/11/19 04:20:17;;;;;;;;;;;4.10;99.90;;;;;;5090714;28;19967;-61
2022/11/19 04:22:44;;;;;;;;;;;4.10;99.90;;;;;;5091119;28;19974;-61
2022/11/19 04:25:14;;;;;;;;;;;4.00;99.90;;;;;;5091519;28;19966;-60
2022/11/19 04:27:41;;;;;;;;;;;4.10;99.90;;;;;;5091518;28;20357;-61
2022/11/19 04:30:09;;;;;;;;;;;4.10;99.90;;;;;;5090509;28;19970;-61
2022/11/19 04:32:37;;;;;;;;;;;4.00;99.90;;;;;;5089415;28;19969;-61
2022/11/19 04:35:05;;;;;;;;;;;4.00;99.90;;;;;;5091078;28;19974;-60
2022/11/19 04:37:33;;;;;;;;;;;4.00;99.90;;;;;;5090253;28;20350;-61
2022/11/19 04:40:01;;;;;;;;;;;4.00;99.90;;;;;;5089057;28;19973;-61
2022/11/19 04:42:30;;;;;;;;;;;4.00;99.90;;;;;;5092089;28;19976;-60
2022/11/19 04:44:57;;;;;;;;;;;3.90;99.90;;;;;;5082997;28;19964;-60
2022/11/19 04:47:25;;;;;;;;;;;3.80;99.90;;;;;;5080753;28;19978;-60
2022/11/19 04:49:53;;;;;;;;;;;4.00;99.90;;;;;;5089770;28;20367;-61
2022/11/19 04:52:21;;;;;;;;;;;4.00;99.90;;;;;;5084779;28;19970;-60
2022/11/19 04:54:48;;;;;;;;;;;4.00;99.90;;;;;;5092467;28;19997;-61
2022/11/19 04:57:16;;;;;;;;;;;3.80;99.90;;;;;;5081166;28;19977;-61
2022/11/19 04:59:45;;;;;;;;;;;3.80;99.90;;;;;;5073396;28;19967;-61
2022/11/19 05:02:13;;;;;;;;;;;3.90;99.90;;;;;;5081784;28;19963;-61
2022/11/19 05:04:41;;;;;;;;;;;3.80;99.90;;;;;;5094413;28;19971;-61
2022/11/19 05:07:08;;;;;;;;;;;3.80;99.90;;;;;;5089377;28;20432;-63
2022/11/19 05:09:36;;;;;;;;;;;3.70;99.90;;;;;;5087532;28;19971;-62
2022/11/19 05:12:04;;;;;;;;;;;3.70;99.90;;;;;;5083801;28;20474;-62
2022/11/19 05:14:32;;;;;;;;;;;3.60;99.90;;;;;;5094155;28;19975;-62
2022/11/19 05:17:01;;;;;;;;;;;3.60;99.90;;;;;;5084875;28;20360;-61
2022/11/19 05:19:29;;;;;;;;;;;3.50;99.90;;;;;;5078154;28;19967;-61
2022/11/19 05:21:56;;;;;;;;;;;3.40;99.90;;;;;;5080235;28;19962;-62
2022/11/19 05:24:24;;;;;;;;;;;3.40;99.90;;;;;;5083959;28;20347;-61
2022/11/19 05:26:52;;;;;;;;;;;3.40;99.90;;;;;;5076986;28;20486;-61
2022/11/19 05:29:19;;;;;;;;;;;3.40;99.90;;;;;;5073140;28;20054;-59
2022/11/19 05:31:48;;;;;;;;;;;3.40;99.90;;;;;;5083629;28;20022;-60
2022/11/19 05:34:17;;;;;;;;;;;3.40;99.90;;;;;;5084526;28;20177;-60
2022/11/19 05:36:44;;;;;;;;;;;3.40;99.90;;;;;;5077400;28;19968;-60
2022/11/19 05:39:12;;;;;;;;;;;3.40;99.90;;;;;;5075887;28;19973;-61
2022/11/19 05:41:48;;;;;;;;;;;3.40;99.90;;;;;;5072115;28;19964;-61
2022/11/19 05:44:15;;;;;;;;;;;3.40;99.90;;;;;;5078603;28;19963;-60
2022/11/19 05:46:43;;;;;;;;;;;3.40;99.90;;;;;;5220752;22;20344;-66
2022/11/19 05:49:11;;;;;;;;;;;3.30;99.90;;;;;;5079025;28;19963;-67
2022/11/19 05:51:40;;;;;;;;;;;3.30;99.90;;;;;;5081889;28;19973;-66
2022/11/19 05:54:08;;;;;;;;;;;3.20;99.90;;;;;;5060886;28;20359;-66
2022/11/19 05:56:36;;;;;;;;;;;3.20;99.90;;;;;;5061463;28;20050;-68
2022/11/19 05:59:03;;;;;;;;;;;3.20;99.90;;;;;;5058784;28;20337;-67
2022/11/19 06:01:31;;;;;;;;;;;3.10;99.90;;;;;;5061335;28;19978;-68
2022/11/19 06:03:59;;;;;;;;;;;3.10;99.90;;;;;;5060910;28;19964;-66
2022/11/19 06:06:27;;;;;;;;;;;3.10;99.90;;;;;;5062961;28;19976;-66
2022/11/19 06:08:56;;;;;;;;;;;3.00;99.90;;;;;;5062496;28;19993;-66
2022/11/19 06:14:09;;;;;;;;;;;3.00;99.90;;;;;;5059850;28;19972;-66
2022/11/19 06:16:37;;;;;;;;;;;3.00;99.90;;;;;;5059912;28;19978;-66
2022/11/19 06:19:05;;;;;;;;;;;3.10;99.90;;;;;;5059433;28;20468;-66
2022/11/19 06:21:32;;;;;;;;;;;3.00;99.90;;;;;;5058606;28;20372;-67
2022/11/19 06:24:01;;;;;;;;;;;2.90;99.90;;;;;;5055190;28;19967;-66
2022/11/19 06:26:29;;;;;;;;;;;2.90;99.90;;;;;;5057524;28;20359;-66
2022/11/19 06:28:57;;;;;;;;;;;3.00;99.90;;;;;;5057258;28;19972;-70
2022/11/19 06:31:25;;;;;;;;;;;3.00;99.90;;;;;;5056757;28;20762;-66
2022/11/19 06:33:53;;;;;;;;;;;2.90;99.90;;;;;;5056481;28;20065;-67
2022/11/19 06:36:21;;;;;;;;;;;3.20;99.90;;;;;;5056341;28;20025;-66
2022/11/19 06:38:51;;;;;;;;;;;3.00;99.90;;;;;;5058044;28;19979;-67
2022/11/19 06:41:21;;;;;;;;;;;2.80;99.90;;;;;;5056258;28;19972;-68
2022/11/19 06:43:48;;;;;;;;;;;2.80;99.90;;;;;;5056572;28;20333;-66
2022/11/19 06:46:16;;;;;;;;;;;2.70;99.90;;;;;;5056612;28;21147;-66
2022/11/19 06:48:44;;;;;;;;;;;2.80;99.90;;;;;;5059137;28;19971;-67
2022/11/19 06:51:12;;;;;;;;;;;2.80;99.90;;;;;;5055351;28;19982;-66
2022/11/19 06:53:39;;;;;;;;;;;2.80;99.90;;;;;;5056239;28;20372;-66
2022/11/19 06:56:07;;;;;;;;;;;2.70;99.90;;;;;;5059211;28;19972;-66
2022/11/19 06:58:37;;;;;;;;;;;2.70;99.90;;;;;;5059724;28;20478;-65
2022/11/19 07:01:05;;;;;;;;;;;2.70;99.90;;;;;;5053932;28;19964;-66
2022/11/19 07:03:32;;;;;;;;;;;2.60;99.90;;;;;;5056582;28;19972;-65
2022/11/19 07:06:02;;;;;;;;;;;2.70;99.90;;;;;;5057040;28;19968;-66
2022/11/19 07:08:32;;;;;;;;;;;2.70;99.90;;;;;;5060680;28;19994;-65
2022/11/19 07:11:00;;;;;;;;;;;2.70;99.90;;;;;;5056066;28;19964;-66
2022/11/19 07:13:55;;;;;;;;;;;2.60;99.90;;;;;;5055982;28;19976;-66
2022/11/19 07:16:17;;;;;;;;;;;2.60;99.90;;;;;;5060467;28;19968;-66
2022/11/19 07:18:45;;;;;;;;;;;2.60;99.90;;;;;;5061216;28;19972;-64
2022/11/19 07:21:12;;;;;;;;;;;2.70;99.90;;;;;;5060625;28;19982;-65
2022/11/19 07:23:40;;;;;;;;;;;2.70;99.90;;;;;;5059813;28;19978;-66
2022/11/19 07:26:08;;;;;;;;;;;2.70;99.90;;;;;;5061079;28;20024;-65
2022/11/19 07:28:35;;;;;;;;;;;2.70;99.90;;;;;;5058848;28;19968;-64
2022/11/19 07:31:04;;;;;;;;;;;2.70;99.90;;;;;;5053381;28;19971;-65
2022/11/19 07:33:34;;;;;;;;;;;2.60;99.90;;;;;;5055976;28;19968;-65
2022/11/19 07:36:02;;;;;;;;;;;2.60;99.90;;;;;;5055455;28;19963;-65
2022/11/19 07:38:30;;;;;;;;;;;2.60;99.90;;;;;;5056722;28;19967;-65
2022/11/19 07:42:47;;;;;;;;;;;2.60;99.90;;;;;;5055508;28;20514;-66
2022/11/19 07:43:51;;;;;;;;;;;2.60;99.90;;;;;;5056485;28;19972;-66
2022/11/19 07:46:19;;;;;;;;;;;2.60;99.90;;;;;;5053918;28;20759;-64
2022/11/19 07:48:51;;;;;;;;;;;2.60;99.90;;;;;;5059048;28;20854;-66
2022/11/19 07:51:19;;;;;;;;;;;2.60;99.90;;;;;;5054839;28;20904;-65
2022/11/19 07:53:46;;;;;;;;;;;2.50;99.90;;;;;;5054863;28;19971;-64
2022/11/19 07:56:14;;;;;;;;;;;2.50;99.90;;;;;;5055402;28;19978;-66
2022/11/19 07:58:42;;;;;;;;;;;2.60;99.90;;;;;;5058669;28;20078;-67
2022/11/19 08:01:10;;;;;;;;;;;2.50;99.90;;;;;;5058056;28;19971;-64
2022/11/19 08:03:38;;;;;;;;;;;2.60;99.90;;;;;;5053388;28;19972;-64
2022/11/19 08:06:08;;;;;;;;;;;2.60;99.90;;;;;;5055132;28;19972;-66
2022/11/19 08:08:35;;;;;;;;;;;2.60;99.90;;;;;;5056540;28;19971;-64
2022/11/19 08:11:03;;;;;;;;;;;2.60;99.90;;;;;;5056397;28;19970;-65
2022/11/19 08:13:31;;;;;;;;;;;2.70;99.90;;;;;;5059902;28;19973;-64
2022/11/19 08:15:59;;;;;;;;;;;2.60;99.90;;;;;;5059149;28;19971;-67
2022/11/19 08:18:26;;;;;;;;;;;2.60;99.90;;;;;;5061611;28;20352;-65
2022/11/19 08:21:02;;;;;;;;;;;2.60;99.90;;;;;;5060334;28;20070;-65
2022/11/19 08:23:32;;;;;;;;;;;2.70;99.90;;;;;;5058041;28;20409;-64
2022/11/19 08:26:00;;;;;;;;;;;2.70;99.90;;;;;;5060658;28;19975;-64
2022/11/19 08:28:28;;;;;;;;;;;2.60;99.90;;;;;;5060816;28;19976;-65
2022/11/19 08:30:56;;;;;;;;;;;2.50;99.90;;;;;;5060861;28;19982;-64
2022/11/19 08:33:24;;;;;;;;;;;2.50;99.90;;;;;;5058692;28;19981;-64
2022/11/19 08:35:54;;;;;;;;;;;2.50;99.90;;;;;;5059997;28;20058;-65
2022/11/19 08:38:21;;;;;;;;;;;2.50;99.90;;;;;;5060497;28;20411;-65
2022/11/19 08:42:58;;;;;;;;;;;2.50;99.90;;;;;;5058908;28;19974;-65
2022/11/19 08:43:39;;;;;;;;;;;2.50;99.90;;;;;;5058970;28;20434;-64
2022/11/19 08:46:07;;;;;;;;;;;2.40;99.90;;;;;;5059057;28;19994;-64
2022/11/19 08:48:34;;;;;;;;;;;2.40;99.90;;;;;;5058285;28;19968;-65
2022/11/19 08:51:03;;;;;;;;;;;2.30;99.90;;;;;;5056568;28;19963;-66
2022/11/19 08:53:31;;;;;;;;;;;2.30;99.90;;;;;;5059065;28;20061;-65
2022/11/19 08:56:00;;;;;;;;;;;2.30;99.90;;;;;;5058359;28;20333;-64
2022/11/19 08:58:27;;;;;;;;;;;2.30;99.90;;;;;;5061158;28;19976;-64
2022/11/19 09:00:55;;;;;;;;;;;2.20;99.90;;;;;;5059439;28;20482;-64
2022/11/19 09:03:23;;;;;;;;;;;2.20;99.90;;;;;;5058115;28;19975;-65
2022/11/19 09:05:57;;;;;;;;;;;2.20;99.90;;;;;;5057360;28;19978;-65
2022/11/19 09:08:25;;;;;;;;;;;2.20;99.90;;;;;;5059490;28;19976;-65
2022/11/19 09:10:53;;;;;;;;;;;2.20;99.90;;;;;;5058710;28;19972;-64
2022/11/19 09:13:22;;;;;;;;;;;2.20;99.90;;;;;;5056184;28;20140;-65
2022/11/19 09:15:50;;;;;;;;;;;2.10;99.90;;;;;;5061877;28;19979;-65
2022/11/19 09:18:18;;;;;;;;;;;2.00;99.90;;;;;;5060077;28;20135;-65
2022/11/19 09:20:45;;;;;;;;;;;2.00;99.90;;;;;;5060667;28;19978;-65
2022/11/19 09:23:14;;;;;;;;;;;2.00;99.90;;;;;;5060418;28;19990;-65
2022/11/19 09:25:42;;;;;;;;;;;1.90;99.90;;;;;;5061372;28;21014;-65
2022/11/19 09:28:10;;;;;;;;;;;1.90;99.90;;;;;;5058518;28;20878;-65
2022/11/19 09:30:39;;;;;;;;;;;1.90;99.90;;;;;;5058895;28;20065;-66
2022/11/19 09:33:06;;;;;;;;;;;1.90;99.90;;;;;;5056613;28;19989;-65
2022/11/19 09:35:34;;;;;;;;;;;2.00;99.90;;;;;;5057626;28;20488;-66
2022/11/19 09:38:02;;;;;;;;;;;2.00;99.90;;;;;;5058387;28;19966;-65
2022/11/19 09:40:30;;;;;;;;;;;2.10;99.90;;;;;;5058691;28;19982;-64
2022/11/19 09:43:04;;;;;;;;;;;2.10;99.90;;;;;;5059356;28;19972;-65
2022/11/19 09:45:40;;;;;;;;;;;2.20;99.90;;;;;;5058501;28;20075;-65
2022/11/19 09:48:16;;;;;;;;;;;2.20;99.90;;;;;;5064962;28;20029;-65
2022/11/19 09:50:47;;;;;;;;;;;2.40;99.90;;;;;;5075487;28;20014;-65
2022/11/19 09:53:21;;;;;;;;;;;2.40;99.90;;;;;;5072932;28;19971;-65
2022/11/19 09:55:50;;;;;;;;;;;2.40;99.90;;;;;;5067564;28;20425;-64
2022/11/19 09:58:20;;;;;;;;;;;2.50;99.90;;;;;;5072461;28;20353;-65
2022/11/19 10:00:48;;;;;;;;;;;2.50;99.90;;;;;;5072093;28;19968;-65
2022/11/19 10:03:19;;;;;;;;;;;2.50;99.90;;;;;;5072985;28;19974;-65
2022/11/19 10:05:59;;;;;;;;;;;2.60;99.90;;;;;;5072933;28;19994;-65
2022/11/19 10:08:33;;;;;;;;;;;2.60;99.90;;;;;;5071119;28;19966;-65
2022/11/19 10:11:06;;;;;;;;;;;2.60;99.90;;;;;;5067331;28;20361;-65
2022/11/19 10:13:43;;;;;;;;;;;2.60;99.90;;;;;;5072501;28;20344;-64
2022/11/19 10:16:19;;;;;;;;;;;2.70;99.90;;;;;;5072730;28;19966;-65
2022/11/19 10:18:54;;;;;;;;;;;2.70;99.90;;;;;;5072675;28;19980;-64
2022/11/19 10:21:24;;;;;;;;;;;2.80;99.90;;;;;;5071964;28;20314;-64
2022/11/19 10:23:59;;;;;;;;;;;2.80;99.90;;;;;;5072611;28;20033;-66
2022/11/19 10:26:32;;;;;;;;;;;2.80;99.90;;;;;;5072494;28;19973;-63
2022/11/19 10:29:01;;;;;;;;;;;2.80;99.90;;;;;;5072304;28;19974;-65
2022/11/19 10:31:30;;;;;;;;;;;2.80;99.90;;;;;;5071708;28;19975;-64
2022/11/19 10:34:02;;;;;;;;;;;2.80;99.90;;;;;;5071797;28;19968;-64
2022/11/19 10:36:32;;;;;;;;;;;2.70;99.90;;;;;;5072283;28;19978;-64
2022/11/19 10:39:02;;;;;;;;;;;2.70;99.90;;;;;;5080552;28;19969;-65
2022/11/19 10:41:33;;;;;;;;;;;2.80;99.90;;;;;;5090921;28;19967;-64
2022/11/19 10:44:04;;;;;;;;;;;2.80;99.90;;;;;;5092510;28;20431;-64
2022/11/19 10:46:32;;;;;;;;;;;2.70;99.90;;;;;;5092371;28;19974;-64
2022/11/19 10:49:01;;;;;;;;;;;2.70;99.90;;;;;;5092146;28;20401;-65
2022/11/19 10:51:30;;;;;;;;;;;2.70;99.90;;;;;;5091766;28;19967;-65
2022/11/19 10:53:58;;;;;;;;;;;2.70;99.90;;;;;;5092243;28;19978;-65
2022/11/19 10:56:32;;;;;;;;;;;2.70;99.90;;;;;;5092106;28;19976;-65
2022/11/19 10:59:02;;;;;;;;;;;2.70;99.90;;;;;;5091860;28;19973;-65
2022/11/19 11:01:32;;;;;;;;;;;2.70;99.90;;;;;;5091453;28;19968;-65
2022/11/19 11:04:07;;;;;;;;;;;2.70;99.90;;;;;;5092689;28;20009;-65
2022/11/19 11:06:52;;;;;;;;;;;2.80;99.90;;;;;;5090563;28;20058;-64
2022/11/19 11:09:29;;;;;;;;;;;2.70;99.90;;;;;;5081071;28;19963;-65
2022/11/19 11:14:53;;;;;;;;;;;2.70;99.90;;;;;;5092163;28;19975;-65
2022/11/19 11:17:22;;;;;;;;;;;2.70;99.90;;;;;;5092082;28;20033;-64
2022/11/19 11:20:03;;;;;;;;;;;2.80;99.90;;;;;;5091068;28;20304;-65
2022/11/19 11:22:31;;;;;;;;;;;2.80;99.90;;;;;;5091988;28;19998;-64
2022/11/19 11:24:59;;;;;;;;;;;2.80;99.90;;;;;;5091967;28;19967;-64
2022/11/19 11:27:34;;;;;;;;;;;2.80;99.90;;;;;;5091842;28;19991;-64
2022/11/19 11:30:04;;;;;;;;;;;2.90;99.90;;;;;;5091174;28;20538;-65
2022/11/19 11:32:32;;;;;;;;;;;2.80;99.90;;;;;;5092160;28;20216;-64
2022/11/19 11:35:01;;;;;;;;;;;2.80;99.90;;;;;;5091906;28;20041;-64
2022/11/19 11:37:35;;;;;;;;;;;2.80;99.90;;;;;;5084989;28;19963;-64
2022/11/19 11:40:03;;;;;;;;;;;2.80;99.90;;;;;;5082462;28;19975;-65
2022/11/19 11:42:31;;;;;;;;;;;2.80;99.90;;;;;;5091825;28;19968;-65
2022/11/19 11:45:00;;;;;;;;;;;2.90;99.90;;;;;;5091854;28;20470;-65
2022/11/19 11:47:29;;;;;;;;;;;2.90;99.90;;;;;;5119276;22;20440;-63
2022/11/19 11:49:58;;;;;;;;;;;2.90;99.90;;;;;;5094784;28;19967;-61
2022/11/19 11:52:30;;;;;;;;;;;3.00;99.90;;;;;;5095627;28;19989;-60
2022/11/19 11:54:59;;;;;;;;;;;2.90;99.90;;;;;;5095858;28;19994;-63
2022/11/19 11:57:27;;;;;;;;;;;2.90;99.90;;;;;;5095543;28;19975;-63
2022/11/19 11:59:55;;;;;;;;;;;2.90;99.90;;;;;;5094651;28;20458;-63
2022/11/19 12:02:28;;;;;;;;;;;2.90;99.90;;;;;;5095599;28;20497;-60
2022/11/19 12:04:58;;;;;;;;;;;2.90;99.90;;;;;;5095586;28;19968;-60
2022/11/19 12:07:35;;;;;;;;;;;2.90;99.90;;;;;;5094922;28;19978;-60
2022/11/19 12:10:09;;;;;;;;;;;2.90;99.90;;;;;;5094393;28;19964;-62
2022/11/19 12:12:40;;;;;;;;;;;2.90;99.90;;;;;;5095424;28;20065;-61
2022/11/19 12:15:15;;;;;;;;;;;2.90;99.90;;;;;;5095432;28;19977;-61
2022/11/19 12:17:47;;;;;;;;;;;3.00;99.90;;;;;;5095422;28;19968;-61
2022/11/19 12:20:21;;;;;;;;;;;2.90;99.90;;;;;;5094579;28;20325;-61
2022/11/19 12:22:58;;;;;;;;;;;2.90;99.90;;;;;;5095193;28;19967;-61
2022/11/19 12:25:30;;;;;;;;;;;2.90;99.90;;;;;;5095317;28;19968;-61
2022/11/19 12:28:06;;;;;;;;;;;3.00;99.90;;;;;;5094965;28;20002;-61
2022/11/19 12:30:41;;;;;;;;;;;3.00;99.90;;;;;;5094092;28;19990;-61
2022/11/19 12:33:29;;;;;;;;;;;3.00;99.90;;;;;;5095087;28;19971;-61
2022/11/19 12:36:04;;;;;;;;;;;3.00;99.90;;;;;;5090119;28;19972;-61
2022/11/19 12:38:40;;;;;;;;;;;3.00;99.90;;;;;;5094310;28;19994;-61
2022/11/19 12:41:15;;;;;;;;;;;2.90;99.90;;;;;;5094266;28;19968;-61
2022/11/19 12:43:51;;;;;;;;;;;2.90;99.90;;;;;;5094687;28;19974;-61
2022/11/19 12:46:23;;;;;;;;;;;2.90;99.90;;;;;;5094596;28;20379;-61
2022/11/19 12:48:56;;;;;;;;;;;2.90;99.90;;;;;;5054177;28;20074;-61
2022/11/19 12:51:31;;;;;;;;;;;2.90;99.90;;;;;;5053774;28;19968;-61
2022/11/19 12:54:09;;;;;;;;;;;3.00;99.90;;;;;;5054162;28;20046;-61
2022/11/19 12:56:45;;;;;;;;;;;3.00;99.90;;;;;;5053671;28;19968;-61
2022/11/19 12:59:20;;;;;;;;;;;3.00;99.90;;;;;;5053674;28;19969;-61
2022/11/19 13:01:50;;;;;;;;;;;3.00;99.90;;;;;;5053450;28;19968;-61
2022/11/19 13:04:23;;;;;;;;;;;3.00;99.90;;;;;;5054318;28;20062;-61
2022/11/19 13:06:53;;;;;;;;;;;3.00;99.90;;;;;;5054214;28;20062;-61
2022/11/19 13:09:25;;;;;;;;;;;3.00;99.90;;;;;;5053771;28;20026;-62
2022/11/19 13:11:55;;;;;;;;;;;3.00;99.90;;;;;;5053794;28;20067;-61
2022/11/19 13:14:26;;;;;;;;;;;3.00;99.90;;;;;;5054012;28;19989;-61
2022/11/19 13:16:55;;;;;;;;;;;3.00;99.90;;;;;;5053895;28;19972;-61
2022/11/19 13:19:26;;;;;;;;;;;3.00;99.90;;;;;;5053592;28;19967;-61
2022/11/19 13:21:55;;;;;;;;;;;3.00;99.90;;;;;;5053220;28;19971;-61
2022/11/19 13:24:32;;;;;;;;;;;2.90;99.90;;;;;;5053377;28;19978;-61
2022/11/19 13:27:02;;;;;;;;;;;2.90;99.90;;;;;;5053606;28;20058;-61
2022/11/19 13:29:33;;;;;;;;;;;2.90;99.90;;;;;;5053372;28;19968;-61
2022/11/19 13:32:03;;;;;;;;;;;3.00;99.90;;;;;;5053894;28;19976;-61
2022/11/19 13:34:34;;;;;;;;;;;3.00;99.90;;;;;;5053503;28;20008;-61
2022/11/19 13:37:06;;;;;;;;;;;2.90;99.90;;;;;;5053023;28;19976;-61
2022/11/19 13:39:36;;;;;;;;;;;2.90;99.90;;;;;;5052720;28;19969;-61
2022/11/19 13:44:51;;;;;;;;;;;3.00;99.90;;;;;;5053521;28;19976;-61
2022/11/19 13:47:22;;;;;;;;;;;3.10;99.90;;;;;;5069266;28;19983;-61
2022/11/19 13:49:52;;;;;;;;;;;3.10;99.90;;;;;;5092787;28;20328;-61
2022/11/19 13:52:24;;;;;;;;;;;3.10;99.90;;;;;;5093217;28;20440;-61
2022/11/19 13:54:53;;;;;;;;;;;3.10;99.90;;;;;;5093464;28;19976;-62
2022/11/19 13:57:26;;;;;;;;;;;3.10;99.90;;;;;;5093215;28;19997;-61
2022/11/19 13:59:58;;;;;;;;;;;3.10;99.90;;;;;;5092282;28;20869;-61
2022/11/19 14:02:37;;;;;;;;;;;3.10;99.90;;;;;;5093241;28;19975;-61
2022/11/19 14:05:09;;;;;;;;;;;3.00;99.90;;;;;;5093130;28;19979;-61
2022/11/19 14:07:44;;;;;;;;;;;3.10;99.90;;;;;;5092930;28;19969;-61
2022/11/19 14:10:17;;;;;;;;;;;3.00;99.90;;;;;;5091719;28;20329;-61
2022/11/19 14:12:59;;;;;;;;;;;3.00;99.90;;;;;;5093133;28;20428;-61
2022/11/19 14:27:30;;;;;;;;;;;3.00;99.90;;;;;;5092636;28;19971;-61
2022/11/19 14:30:00;;;;;;;;;;;2.90;99.90;;;;;;5092033;28;20419;-61
2022/11/19 14:32:29;;;;;;;;;;;2.90;99.90;;;;;;5092449;28;20046;-61
2022/11/19 14:35:21;;;;;;;;;;;3.00;99.90;;;;;;5092746;28;19967;-61
2022/11/19 14:37:51;;;;;;;;;;;3.00;99.90;;;;;;5077086;28;19963;-61
2022/11/19 14:40:20;;;;;;;;;;;2.90;99.90;;;;;;5091703;28;19962;-61
2022/11/19 14:46:23;;;;;;;;;;;2.90;99.90;;;;;;5092318;28;19977;-62
2022/11/19 14:48:52;;;;;;;;;;;2.90;99.90;;;;;;5052341;28;19979;-61
2022/11/19 14:51:27;;;;;;;;;;;3.00;99.90;;;;;;5051456;28;19972;-61
2022/11/19 14:53:56;;;;;;;;;;;3.00;99.90;;;;;;5051572;28;19968;-61
2022/11/19 14:56:24;;;;;;;;;;;2.90;99.90;;;;;;5052133;28;19978;-61
2022/11/19 14:58:55;;;;;;;;;;;2.90;99.90;;;;;;5052169;28;19967;-61
2022/11/19 15:01:24;;;;;;;;;;;2.90;99.90;;;;;;5051255;28;19972;-61
2022/11/19 15:03:53;;;;;;;;;;;2.90;99.90;;;;;;5051969;28;20356;-61
2022/11/19 15:06:21;;;;;;;;;;;2.90;99.90;;;;;;5052384;28;19967;-61
2022/11/19 15:08:50;;;;;;;;;;;2.90;99.90;;;;;;5051848;28;19969;-61
2022/11/19 15:11:17;;;;;;;;;;;2.90;99.90;;;;;;5050793;28;20445;-61
2022/11/19 15:13:46;;;;;;;;;;;2.90;99.90;;;;;;5051695;28;19968;-62
2022/11/19 15:16:15;;;;;;;;;;;2.90;99.90;;;;;;5051804;28;19968;-62
2022/11/19 15:19:10;;;;;;;;;;;2.90;99.90;;;;;;5051956;28;20033;-61
2022/11/19 15:22:00;;;;;;;;;;;2.90;99.90;;;;;;5050678;28;20067;-61
2022/11/19 15:24:33;;;;;;;;;;;2.90;99.90;;;;;;5051895;28;20378;-61